Time;durP1;ratioP1;P1;durP2;ratioP2;P2;SDS_P1;SDS_P2;PMS_P1;PMS_P2;Temp;Humidity;BMP_temperature;BMP_pressure;BME280_temperature;BME280_humidity;BME280_pressure;Samples;Min_cycle;Max_cycle;Signal;HPM_P1;HPM_P2
2021/12/08 00:01:18;;;;;;;1.08;1.00;;;1.20;99.90;;;;;;4418582;32;20073;-71
2021/12/08 00:03:44;;;;;;;1.90;1.57;;;1.20;99.90;;;;;;4418991;32;20118;-71
2021/12/08 00:06:09;;;;;;;10.05;3.00;;;1.20;99.90;;;;;;4416423;32;20518;-71
2021/12/08 00:08:35;;;;;;;2.30;1.77;;;1.40;99.90;;;;;;4419040;32;20144;-71
2021/12/08 00:13:31;;;;;;;3.10;1.70;;;1.20;99.90;;;;;;4421050;32;20097;-71
2021/12/08 00:16:03;;;;;;;1.45;1.37;;;1.30;99.90;;;;;;4422683;32;20161;-71
2021/12/08 00:18:33;;;;;;;6.60;2.58;;;1.10;99.90;;;;;;4417493;32;20548;-72
2021/12/08 00:32:10;;;;;;;3.30;2.30;;;1.10;99.90;;;;;;4398271;32;20169;-72
2021/12/08 00:39:36;;;;;;;1.40;1.30;;;1.10;99.90;;;;;;4402034;32;19945;-72
2021/12/08 00:41:06;;;;;;;1.20;1.12;;;1.10;99.90;;;;;;4393777;32;20330;-71
2021/12/08 00:43:32;;;;;;;0.95;0.90;;;1.20;99.90;;;;;;4417630;32;20082;-72
2021/12/08 00:45:58;;;;;;;1.85;1.25;;;1.20;99.90;;;;;;4421204;32;20090;-72
2021/12/08 00:48:23;;;;;;;1.40;1.30;;;1.20;99.90;;;;;;4420603;32;20069;-71
2021/12/08 00:50:50;;;;;;;1.52;1.42;;;1.10;99.90;;;;;;4420869;32;20203;-71
2021/12/08 00:53:16;;;;;;;8.18;2.45;;;1.10;99.90;;;;;;4422568;32;20432;-71
2021/12/08 00:55:41;;;;;;;2.17;1.52;;;1.10;99.90;;;;;;4420665;32;20062;-72
2021/12/08 00:58:07;;;;;;;9.38;2.55;;;1.10;99.90;;;;;;4419930;32;20131;-72
2021/12/08 01:00:38;;;;;;;1.55;1.08;;;1.10;99.90;;;;;;4421365;32;20576;-72
2021/12/08 01:03:05;;;;;;;1.02;1.00;;;1.10;99.90;;;;;;4417403;32;20081;-73
2021/12/08 01:05:36;;;;;;;3.22;1.87;;;1.10;99.90;;;;;;4418108;32;20090;-72
2021/12/08 01:08:04;;;;;;;1.37;1.27;;;1.00;99.90;;;;;;4419128;32;20525;-71
2021/12/08 01:10:29;;;;;;;4.37;3.47;;;1.10;99.90;;;;;;4420474;32;20100;-71
2021/12/08 01:12:55;;;;;;;2.03;1.87;;;1.10;99.90;;;;;;4421745;32;20120;-71
2021/12/08 01:15:24;;;;;;;1.45;1.35;;;1.00;99.90;;;;;;4419955;32;20160;-72
2021/12/08 01:17:49;;;;;;;3.78;2.33;;;1.00;99.90;;;;;;4417151;32;20232;-72
2021/12/08 01:20:15;;;;;;;5.60;2.67;;;1.00;99.90;;;;;;4420267;32;20069;-71
2021/12/08 01:22:42;;;;;;;1.62;1.52;;;1.00;99.90;;;;;;4420796;32;20119;-70
2021/12/08 01:25:08;;;;;;;0.88;0.88;;;1.00;99.90;;;;;;4417837;32;20450;-73
2021/12/08 01:27:35;;;;;;;2.50;1.80;;;0.90;99.90;;;;;;4420322;32;20085;-72
2021/12/08 01:30:02;;;;;;;1.45;1.37;;;0.90;99.90;;;;;;4419048;32;20086;-71
2021/12/08 01:32:27;;;;;;;1.23;1.17;;;0.90;99.90;;;;;;4419132;32;20090;-72
2021/12/08 01:34:53;;;;;;;0.88;0.88;;;0.90;99.90;;;;;;4417020;32;20069;-71
2021/12/08 01:37:20;;;;;;;11.10;4.10;;;0.90;99.90;;;;;;4420335;32;20082;-71
2021/12/08 01:39:45;;;;;;;1.20;1.10;;;1.00;99.90;;;;;;4417547;32;20540;-71
2021/12/08 01:42:17;;;;;;;2.42;2.10;;;1.00;99.90;;;;;;4418876;32;20074;-71
2021/12/08 01:46:00;;;;;;;2.40;1.77;;;1.00;99.90;;;;;;4420659;32;20090;-72
2021/12/08 01:47:29;;;;;;;1.25;1.23;;;0.90;99.90;;;;;;4408155;32;20144;-72
2021/12/08 01:49:55;;;;;;;1.90;1.70;;;0.90;99.90;;;;;;4415676;32;20531;-71
2021/12/08 01:52:21;;;;;;;1.45;1.35;;;0.90;99.90;;;;;;4416061;32;20073;-72
2021/12/08 01:54:47;;;;;;;1.10;1.10;;;0.90;99.90;;;;;;4417583;32;20069;-73
2021/12/08 01:57:13;;;;;;;1.55;1.45;;;1.00;99.90;;;;;;4418084;32;20565;-72
2021/12/08 01:59:38;;;;;;;1.37;1.27;;;1.10;99.90;;;;;;4418166;32;20082;-71
2021/12/08 02:02:04;;;;;;;1.12;1.08;;;1.20;99.90;;;;;;4415320;32;20238;-72
2021/12/08 02:04:29;;;;;;;3.45;1.67;;;1.10;99.90;;;;;;4419518;32;20077;-71
2021/12/08 02:06:57;;;;;;;0.82;0.82;;;1.00;99.90;;;;;;4417995;32;20089;-71
2021/12/08 02:09:22;;;;;;;1.25;1.17;;;0.90;99.90;;;;;;4420712;32;20078;-72
2021/12/08 02:11:52;;;;;;;1.42;1.33;;;0.90;99.90;;;;;;4418514;32;20613;-72
2021/12/08 02:14:18;;;;;;;1.60;1.50;;;0.90;99.90;;;;;;4418689;32;20418;-72
2021/12/08 02:16:43;;;;;;;1.85;1.75;;;0.90;99.90;;;;;;4420175;32;20182;-71
2021/12/08 02:19:09;;;;;;;1.90;1.75;;;0.80;99.90;;;;;;4414699;32;20584;-71
2021/12/08 02:21:39;;;;;;;1.05;0.93;;;0.90;99.90;;;;;;4414399;32;20102;-72
2021/12/08 02:24:08;;;;;;;1.87;1.62;;;0.90;99.90;;;;;;4418188;32;20069;-72
2021/12/08 02:26:35;;;;;;;0.95;0.95;;;1.00;99.90;;;;;;4417121;32;20143;-71
2021/12/08 02:29:06;;;;;;;1.10;1.08;;;0.90;99.90;;;;;;4419162;32;20058;-72
2021/12/08 02:31:42;;;;;;;1.23;1.12;;;0.90;99.90;;;;;;4421684;32;20069;-72
2021/12/08 02:47:15;;;;;;;2.37;1.25;;;0.80;99.90;;;;;;4407694;32;20081;-71
2021/12/08 02:47:56;;;;;;;3.72;1.58;;;0.80;99.90;;;;;;4405086;32;20121;-72
2021/12/08 02:50:25;;;;;;;1.48;1.35;;;0.70;99.90;;;;;;4418303;32;20146;-72
2021/12/08 02:52:52;;;;;;;3.70;2.87;;;0.70;99.90;;;;;;4414360;32;20133;-72
2021/12/08 02:55:18;;;;;;;1.90;1.48;;;0.80;99.90;;;;;;4418677;32;20086;-72
2021/12/08 02:57:43;;;;;;;0.68;0.68;;;0.80;99.90;;;;;;4416423;32;20356;-71
2021/12/08 03:00:13;;;;;;;2.12;1.75;;;0.80;99.90;;;;;;4414140;32;20132;-71
2021/12/08 03:02:39;;;;;;;1.33;1.23;;;0.80;99.90;;;;;;4415169;32;20061;-71
2021/12/08 03:05:05;;;;;;;1.87;1.70;;;0.80;99.90;;;;;;4413432;32;20137;-73
2021/12/08 03:07:30;;;;;;;0.50;0.50;;;0.80;99.90;;;;;;4420009;32;20520;-72
2021/12/08 03:10:04;;;;;;;2.47;2.28;;;0.80;99.90;;;;;;4417157;32;20077;-72
2021/12/08 03:12:31;;;;;;;1.30;1.20;;;0.90;99.90;;;;;;4417913;32;20078;-72
2021/12/08 03:14:57;;;;;;;1.55;1.45;;;0.70;99.90;;;;;;4416648;32;20082;-71
2021/12/08 03:17:22;;;;;;;0.80;0.80;;;0.80;99.90;;;;;;4417503;32;20085;-72
2021/12/08 03:19:49;;;;;;;2.60;2.22;;;0.80;99.90;;;;;;4418420;32;20073;-72
2021/12/08 03:22:14;;;;;;;1.20;1.17;;;0.70;99.90;;;;;;4420015;32;20065;-71
2021/12/08 03:24:43;;;;;;;2.20;2.03;;;0.80;99.90;;;;;;4418801;32;20077;-71
2021/12/08 03:27:14;;;;;;;1.35;1.25;;;0.80;99.90;;;;;;4416485;32;20125;-72
2021/12/08 03:30:10;;;;;;;4.40;2.12;;;0.80;99.90;;;;;;4413973;32;20069;-71
2021/12/08 03:32:35;;;;;;;0.93;0.93;;;0.90;99.90;;;;;;4411758;32;20065;-72
2021/12/08 03:35:01;;;;;;;8.68;3.12;;;0.90;99.90;;;;;;4419380;32;20498;-72
2021/12/08 03:37:32;;;;;;;1.65;1.55;;;0.90;99.90;;;;;;4421103;32;20113;-72
2021/12/08 03:40:03;;;;;;;0.90;0.90;;;0.90;99.90;;;;;;4419215;32;20125;-71
2021/12/08 03:42:34;;;;;;;0.88;0.88;;;0.90;99.90;;;;;;4418068;32;20065;-72
2021/12/08 03:45:02;;;;;;;0.82;0.82;;;0.80;99.90;;;;;;4419391;32;20077;-71
2021/12/08 03:47:29;;;;;;;3.20;2.33;;;0.90;99.90;;;;;;4418767;32;20203;-72
2021/12/08 03:49:58;;;;;;;0.95;0.95;;;1.00;99.90;;;;;;4421068;32;20532;-71
2021/12/08 03:52:24;;;;;;;1.33;1.23;;;0.90;99.90;;;;;;4421104;32;20110;-72
2021/12/08 03:54:50;;;;;;;3.60;1.73;;;0.80;99.90;;;;;;4419739;32;20380;-72
2021/12/08 03:57:15;;;;;;;0.80;0.80;;;0.80;99.90;;;;;;4422017;32;20185;-72
2021/12/08 03:59:41;;;;;;;2.90;1.27;;;0.70;99.90;;;;;;4417160;32;20073;-72
2021/12/08 04:02:07;;;;;;;4.65;1.92;;;0.70;99.90;;;;;;4417605;32;20077;-71
2021/12/08 04:04:42;;;;;;;1.17;1.15;;;0.70;99.90;;;;;;4419256;32;20081;-71
2021/12/08 04:07:11;;;;;;;0.90;0.90;;;0.70;99.90;;;;;;4413747;32;20069;-72
2021/12/08 04:09:40;;;;;;;1.15;1.15;;;0.70;99.90;;;;;;4416521;32;20065;-71
2021/12/08 04:12:08;;;;;;;6.40;2.35;;;0.70;99.90;;;;;;4418227;32;20090;-72
2021/12/08 04:14:38;;;;;;;1.00;1.00;;;0.70;99.90;;;;;;4416004;32;20078;-71
2021/12/08 04:17:08;;;;;;;1.08;1.02;;;0.80;99.90;;;;;;4420622;32;20061;-72
2021/12/08 04:19:35;;;;;;;11.82;2.50;;;0.80;99.90;;;;;;4418292;32;20116;-72
2021/12/08 04:22:07;;;;;;;1.77;1.67;;;0.90;99.90;;;;;;4419202;32;20065;-72
2021/12/08 04:24:33;;;;;;;6.00;2.45;;;0.90;99.90;;;;;;4421882;32;20555;-71
2021/12/08 04:27:04;;;;;;;2.25;2.05;;;0.80;99.90;;;;;;4420279;32;20058;-72
2021/12/08 04:29:36;;;;;;;2.50;1.70;;;0.70;99.90;;;;;;4423265;32;20462;-71
2021/12/08 04:32:03;;;;;;;0.52;0.52;;;0.70;99.90;;;;;;4416749;32;111597;-72
2021/12/08 04:34:33;;;;;;;1.27;1.17;;;0.80;99.90;;;;;;4418903;32;20085;-71
2021/12/08 04:37:03;;;;;;;13.15;2.72;;;0.80;99.90;;;;;;4421244;32;20077;-71
2021/12/08 04:39:47;;;;;;;3.65;2.20;;;0.90;99.90;;;;;;4418793;32;20058;-72
2021/12/08 04:42:18;;;;;;;1.02;0.95;;;0.80;99.90;;;;;;4417775;32;20065;-72
2021/12/08 04:44:51;;;;;;;1.27;1.17;;;0.90;99.90;;;;;;4418873;32;20066;-72
2021/12/08 04:52:47;;;;;;;1.10;1.10;;;0.80;99.90;;;;;;4421715;32;20074;-71
2021/12/08 05:04:36;;;;;;;7.57;2.87;;;0.90;99.90;;;;;;4419775;32;20509;-71
2021/12/08 05:08:54;;;;;;;3.03;1.80;;;0.70;99.90;;;;;;4422757;32;20203;-71
2021/12/08 05:11:24;;;;;;;0.90;0.90;;;0.80;99.90;;;;;;4422072;32;20542;-72
2021/12/08 05:13:59;;;;;;;2.33;1.67;;;0.90;99.90;;;;;;4421773;32;20082;-71
2021/12/08 05:16:27;;;;;;;0.75;0.75;;;0.80;99.90;;;;;;4421509;32;20193;-71
2021/12/08 05:18:55;;;;;;;4.07;2.08;;;0.80;99.90;;;;;;4420412;32;20058;-73
2021/12/08 05:21:43;;;;;;;0.73;0.70;;;0.90;99.90;;;;;;4412966;32;20151;-71
2021/12/08 05:24:14;;;;;;;1.70;1.60;;;0.90;99.90;;;;;;4419119;32;20498;-72
2021/12/08 05:26:49;;;;;;;1.10;1.05;;;0.80;99.90;;;;;;4416753;32;20073;-72
2021/12/08 05:29:24;;;;;;;1.45;1.30;;;0.90;99.90;;;;;;4418788;32;20094;-72
2021/12/08 05:31:51;;;;;;;1.85;1.67;;;0.80;99.90;;;;;;4419151;32;20080;-73
2021/12/08 05:34:18;;;;;;;0.68;0.68;;;0.80;99.90;;;;;;4418183;32;20094;-71
2021/12/08 05:36:44;;;;;;;2.17;1.98;;;0.70;99.90;;;;;;4420301;32;20081;-71
2021/12/08 05:39:14;;;;;;;1.40;1.30;;;0.80;99.90;;;;;;4415730;32;20077;-71
2021/12/08 05:41:41;;;;;;;1.77;1.10;;;0.70;99.90;;;;;;4418413;32;20116;-71
2021/12/08 05:44:08;;;;;;;1.70;1.33;;;0.90;99.90;;;;;;4416636;32;20498;-71
2021/12/08 05:46:40;;;;;;;1.23;0.93;;;0.80;99.90;;;;;;4417438;32;20227;-72
2021/12/08 05:49:06;;;;;;;1.42;1.33;;;0.80;99.90;;;;;;4416788;32;20125;-71
2021/12/08 05:51:34;;;;;;;6.18;2.55;;;0.80;99.90;;;;;;4416226;32;20086;-72
2021/12/08 05:54:08;;;;;;;0.95;0.93;;;0.60;99.90;;;;;;4415572;32;20695;-72
2021/12/08 05:56:34;;;;;;;0.68;0.68;;;0.60;99.90;;;;;;4416051;32;20138;-71
2021/12/08 05:59:02;;;;;;;1.40;1.30;;;0.50;99.90;;;;;;4417641;32;20086;-71
2021/12/08 06:01:33;;;;;;;1.75;1.17;;;0.60;99.90;;;;;;4414206;32;20086;-72
2021/12/08 06:04:00;;;;;;;1.70;1.45;;;0.60;99.90;;;;;;4416026;32;20078;-72
2021/12/08 06:06:28;;;;;;;1.02;1.00;;;0.70;99.90;;;;;;4413694;32;20128;-72
2021/12/08 06:08:55;;;;;;;2.80;1.77;;;0.60;99.90;;;;;;4416173;32;20730;-71
2021/12/08 06:11:22;;;;;;;3.22;2.22;;;0.50;99.90;;;;;;4413214;32;20953;-71
2021/12/08 06:13:48;;;;;;;1.35;1.02;;;0.60;99.90;;;;;;4416339;32;20066;-72
2021/12/08 06:16:18;;;;;;;0.95;0.95;;;0.50;99.90;;;;;;4416239;32;20101;-71
2021/12/08 06:18:44;;;;;;;0.85;0.85;;;0.50;99.90;;;;;;4406719;32;20772;-75
2021/12/08 06:21:19;;;;;;;3.53;2.25;;;0.60;99.90;;;;;;4416849;32;20082;-72
2021/12/08 06:23:46;;;;;;;1.27;1.17;;;0.50;99.90;;;;;;4416895;32;20089;-71
2021/12/08 06:26:15;;;;;;;2.75;1.52;;;0.60;99.90;;;;;;4406209;32;20271;-71
2021/12/08 06:28:43;;;;;;;1.70;1.55;;;0.50;99.90;;;;;;4416858;32;20509;-71
2021/12/08 06:31:11;;;;;;;1.42;1.33;;;0.50;99.90;;;;;;4400504;32;20118;-71
2021/12/08 06:33:38;;;;;;;0.93;0.90;;;0.50;99.90;;;;;;4411512;32;20109;-71
2021/12/08 06:36:09;;;;;;;3.80;1.70;;;0.60;99.90;;;;;;4411644;32;20085;-73
2021/12/08 06:38:36;;;;;;;1.12;1.12;;;0.60;99.90;;;;;;4410725;32;20134;-71
2021/12/08 06:41:05;;;;;;;0.93;0.93;;;0.60;99.90;;;;;;4412447;32;20124;-72
2021/12/08 06:43:36;;;;;;;2.07;1.83;;;0.70;99.90;;;;;;4409197;32;20085;-71
2021/12/08 06:46:02;;;;;;;;;;;0.70;99.90;;;;;;4413440;32;20081;-71
2021/12/08 06:48:33;;;;;;;0.80;0.80;;;0.60;99.90;;;;;;4413896;32;20186;-71
2021/12/08 06:51:00;;;;;;;;;;;0.70;99.90;;;;;;4406591;32;20101;-73
2021/12/08 06:53:27;;;;;;;1.00;1.00;;;0.60;99.90;;;;;;4408176;32;19976;-72
2021/12/08 06:56:00;;;;;;;6.75;1.62;;;0.60;99.90;;;;;;4404655;32;20279;-72
2021/12/08 06:58:31;;;;;;;0.93;0.93;;;0.60;99.90;;;;;;4408018;32;20053;-72
2021/12/08 07:01:13;;;;;;;;;;;0.70;99.90;;;;;;4406309;32;20098;-71
2021/12/08 07:04:09;;;;;;;1.45;1.35;;;0.60;99.90;;;;;;4400823;32;20040;-71
2021/12/08 07:09:04;;;;;;;1.50;1.40;;;0.80;99.90;;;;;;4405765;32;20439;-71
2021/12/08 07:11:30;;;;;;;2.05;1.70;;;0.80;99.90;;;;;;4409308;32;20125;-70
2021/12/08 07:13:56;;;;;;;1.58;1.48;;;0.80;99.90;;;;;;4414900;32;20102;-72
2021/12/08 07:16:28;;;;;;;1.58;1.45;;;0.80;99.90;;;;;;4407680;32;20095;-71
2021/12/08 07:19:01;;;;;;;2.65;1.27;;;0.70;99.90;;;;;;4404346;32;20168;-72
2021/12/08 07:21:35;;;;;;;1.33;1.23;;;0.80;99.90;;;;;;4408949;32;20132;-72
2021/12/08 07:24:10;;;;;;;2.22;1.98;;;0.70;99.90;;;;;;4412067;32;20778;-71
2021/12/08 07:26:39;;;;;;;5.57;1.35;;;0.80;99.90;;;;;;4408135;32;20657;-70
2021/12/08 07:29:08;;;;;;;1.42;1.33;;;0.80;99.90;;;;;;4405494;32;20093;-71
2021/12/08 07:31:40;;;;;;;0.82;0.82;;;0.80;99.90;;;;;;4405597;32;20066;-72
2021/12/08 07:34:09;;;;;;;2.00;1.85;;;0.70;99.90;;;;;;4406888;32;20843;-70
2021/12/08 07:36:40;;;;;;;4.20;2.97;;;0.70;99.90;;;;;;4407783;32;21702;-71
2021/12/08 07:39:10;;;;;;;0.75;0.75;;;0.70;99.90;;;;;;4409551;32;20509;-70
2021/12/08 07:41:40;;;;;;;;;;;0.70;99.90;;;;;;4412243;32;20128;-71
2021/12/08 07:44:10;;;;;;;1.83;1.73;;;0.70;99.90;;;;;;4410118;32;20369;-70
2021/12/08 07:46:40;;;;;;;0.93;0.93;;;0.70;99.90;;;;;;4410365;32;20106;-72
2021/12/08 07:49:10;;;;;;;2.97;1.77;;;0.70;99.90;;;;;;4412123;32;20102;-71
2021/12/08 07:51:45;;;;;;;2.33;2.10;;;0.70;99.90;;;;;;4416089;32;20589;-71
2021/12/08 07:54:11;;;;;;;0.90;0.90;;;0.80;99.90;;;;;;4415450;32;20086;-71
2021/12/08 07:56:40;;;;;;;1.52;1.35;;;0.80;99.90;;;;;;4413388;32;20615;-72
2021/12/08 07:59:09;;;;;;;1.33;1.20;;;0.70;99.90;;;;;;4414679;32;20148;-71
2021/12/08 08:01:40;;;;;;;11.25;3.47;;;0.70;99.90;;;;;;4407893;32;20152;-70
2021/12/08 08:04:07;;;;;;;;;;;0.70;99.90;;;;;;4413063;32;20082;-71
2021/12/08 08:06:37;;;;;;;1.10;1.10;;;0.70;99.90;;;;;;4412727;32;20013;-70
2021/12/08 08:09:07;;;;;;;16.35;3.87;;;0.60;99.90;;;;;;4407858;32;20390;-70
2021/12/08 08:11:40;;;;;;;1.55;1.42;;;0.70;99.90;;;;;;4409372;32;20146;-70
2021/12/08 08:14:06;;;;;;;1.00;1.00;;;0.80;99.90;;;;;;4402625;32;20711;-70
2021/12/08 08:16:35;;;;;;;1.15;1.12;;;0.80;99.90;;;;;;4409323;32;20153;-69
2021/12/08 08:19:09;;;;;;;15.35;1.05;;;0.80;99.90;;;;;;4413401;32;20076;-69
2021/12/08 08:21:39;;;;;;;2.10;1.92;;;0.80;99.90;;;;;;4414981;32;20531;-69
2021/12/08 08:24:06;;;;;;;18.10;3.78;;;0.90;99.90;;;;;;4408833;32;20221;-69
2021/12/08 08:26:33;;;;;;;1.75;1.58;;;0.90;99.90;;;;;;4409036;32;20524;-70
2021/12/08 08:29:00;;;;;;;1.50;1.40;;;0.90;99.90;;;;;;4409071;32;20858;-70
2021/12/08 08:31:32;;;;;;;0.70;0.70;;;0.90;99.90;;;;;;4392020;32;20140;-69
2021/12/08 08:33:59;;;;;;;5.25;2.00;;;0.90;99.90;;;;;;4397854;32;20260;-69
2021/12/08 08:36:30;;;;;;;1.55;1.45;;;1.00;99.90;;;;;;4405558;32;20631;-69
2021/12/08 08:39:03;;;;;;;3.80;2.97;;;0.90;99.90;;;;;;4404118;32;20128;-70
2021/12/08 08:41:34;;;;;;;1.55;1.42;;;1.00;99.90;;;;;;4411379;32;20166;-69
2021/12/08 08:44:07;;;;;;;3.22;1.95;;;1.00;99.90;;;;;;4394392;32;20299;-71
2021/12/08 08:46:37;;;;;;;2.70;1.55;;;1.10;99.90;;;;;;4397526;32;20201;-70
2021/12/08 08:49:08;;;;;;;4.20;2.35;;;1.10;99.90;;;;;;4397657;32;20564;-70
2021/12/08 08:51:37;;;;;;;;;;;1.20;99.90;;;;;;4397543;32;20739;-70
2021/12/08 08:54:08;;;;;;;0.80;0.80;;;1.20;99.90;;;;;;4395559;32;20030;-71
2021/12/08 08:56:39;;;;;;;2.05;1.95;;;1.20;99.90;;;;;;4400838;32;20069;-70
2021/12/08 08:59:13;;;;;;;1.37;0.95;;;1.10;99.90;;;;;;4404291;32;20517;-70
2021/12/08 09:01:43;;;;;;;1.67;1.58;;;1.10;99.90;;;;;;4408130;32;20716;-68
2021/12/08 09:04:27;;;;;;;;;;;1.10;99.90;;;;;;4407851;32;20732;-69
2021/12/08 09:06:56;;;;;;;7.87;2.35;;;1.10;99.90;;;;;;4410396;32;19949;-70
2021/12/08 09:09:25;;;;;;;1.35;1.25;;;1.10;99.90;;;;;;4408852;32;20462;-70
2021/12/08 09:11:58;;;;;;;8.52;2.72;;;1.20;99.90;;;;;;4410254;32;20069;-69
2021/12/08 09:14:35;;;;;;;1.70;1.60;;;1.30;99.90;;;;;;4411559;32;20070;-70
2021/12/08 09:17:08;;;;;;;2.10;1.98;;;1.30;99.90;;;;;;4407237;32;20287;-70
2021/12/08 09:19:42;;;;;;;0.73;0.73;;;1.30;99.90;;;;;;4408870;32;20094;-69
2021/12/08 09:22:32;;;;;;;1.33;1.23;;;1.30;99.90;;;;;;4410686;32;20559;-69
2021/12/08 09:25:07;;;;;;;3.55;2.87;;;1.30;99.90;;;;;;4406992;32;20624;-69
2021/12/08 09:27:37;;;;;;;2.62;1.45;;;1.30;99.90;;;;;;4406987;32;20082;-70
2021/12/08 09:30:17;;;;;;;1.20;1.15;;;1.30;99.90;;;;;;4406430;32;20100;-69
2021/12/08 09:32:46;;;;;;;5.57;4.32;;;1.30;99.90;;;;;;4397774;32;20094;-69
2021/12/08 09:35:19;;;;;;;0.88;0.88;;;1.30;99.90;;;;;;4401341;32;20163;-69
2021/12/08 09:37:51;;;;;;;3.62;2.08;;;1.40;99.90;;;;;;4400154;32;20127;-69
2021/12/08 09:40:26;;;;;;;1.15;1.15;;;1.30;99.90;;;;;;4406659;32;20092;-69
2021/12/08 09:42:57;;;;;;;9.32;3.37;;;1.30;99.90;;;;;;4404148;32;20562;-69
2021/12/08 09:45:31;;;;;;;2.42;2.22;;;1.40;99.90;;;;;;4402374;32;20539;-69
2021/12/08 09:47:59;;;;;;;2.70;2.47;;;1.30;99.90;;;;;;4404866;32;20720;-69
2021/12/08 09:50:25;;;;;;;5.20;3.45;;;1.40;99.90;;;;;;4405736;32;20108;-69
2021/12/08 09:52:50;;;;;;;6.78;3.87;;;1.40;99.90;;;;;;4406618;32;21461;-69
2021/12/08 09:55:17;;;;;;;10.43;2.67;;;1.50;99.90;;;;;;4412687;32;20148;-69
2021/12/08 09:57:46;;;;;;;1.58;1.48;;;1.50;99.90;;;;;;4407905;32;20188;-69
2021/12/08 10:00:21;;;;;;;6.55;3.10;;;1.50;99.90;;;;;;4408219;32;20088;-69
2021/12/08 10:02:46;;;;;;;2.47;2.28;;;1.50;99.90;;;;;;4405807;32;20089;-69
2021/12/08 10:05:15;;;;;;;1.87;1.73;;;1.50;99.90;;;;;;4402872;32;20110;-69
2021/12/08 10:07:43;;;;;;;0.82;0.82;;;1.50;99.90;;;;;;4404535;32;20173;-70
2021/12/08 10:10:11;;;;;;;4.07;3.08;;;1.60;99.90;;;;;;4406859;32;20100;-69
2021/12/08 10:12:38;;;;;;;3.20;2.45;;;1.60;99.90;;;;;;4407160;32;20128;-69
2021/12/08 10:15:09;;;;;;;6.00;3.72;;;1.60;99.90;;;;;;4404790;32;20100;-69
2021/12/08 10:17:34;;;;;;;3.05;2.15;;;1.70;99.90;;;;;;4404544;32;20102;-69
2021/12/08 10:20:08;;;;;;;2.60;1.95;;;1.70;99.90;;;;;;4398970;32;20073;-69
2021/12/08 10:22:34;;;;;;;2.65;1.98;;;1.80;99.90;;;;;;4405324;32;20120;-70
2021/12/08 10:25:13;;;;;;;2.22;1.80;;;1.70;99.90;;;;;;4401523;32;20178;-69
2021/12/08 10:28:17;;;;;;;1.23;1.17;;;1.70;99.90;;;;;;4397529;32;20082;-69
2021/12/08 10:30:49;;;;;;;2.20;2.00;;;1.80;99.90;;;;;;4391489;32;20109;-69
2021/12/08 10:33:47;;;;;;;1.77;1.67;;;1.90;99.90;;;;;;4405087;32;20091;-69
2021/12/08 10:36:32;;;;;;;2.83;1.92;;;1.90;99.90;;;;;;4401074;32;20125;-69
2021/12/08 10:38:59;;;;;;;2.72;2.08;;;1.80;99.90;;;;;;4407902;32;20399;-69
2021/12/08 10:41:24;;;;;;;16.00;2.80;;;1.80;99.90;;;;;;4403137;32;20580;-68
2021/12/08 10:43:59;;;;;;;4.35;2.60;;;1.90;99.90;;;;;;4404012;32;20101;-69
2021/12/08 10:46:37;;;;;;;1.23;1.23;;;2.00;99.90;;;;;;4400826;32;20110;-69
2021/12/08 10:49:20;;;;;;;13.45;2.78;;;1.90;99.90;;;;;;4404799;32;20825;-68
2021/12/08 10:54:35;;;;;;;1.92;1.73;;;1.90;99.90;;;;;;4393146;32;20101;-69
2021/12/08 10:57:19;;;;;;;1.52;1.45;;;2.00;99.90;;;;;;4404303;32;20102;-69
2021/12/08 10:59:55;;;;;;;4.55;2.70;;;2.00;99.90;;;;;;4407909;32;20730;-68
2021/12/08 11:02:38;;;;;;;3.60;2.87;;;2.20;99.90;;;;;;4403252;32;20217;-69
2021/12/08 11:05:06;;;;;;;2.12;1.85;;;2.20;99.90;;;;;;4389876;32;20817;-68
2021/12/08 11:07:32;;;;;;;6.40;2.53;;;2.40;99.90;;;;;;4410553;32;20113;-69
2021/12/08 11:09:57;;;;;;;2.53;2.08;;;2.50;99.90;;;;;;4408508;32;20101;-70
2021/12/08 11:12:38;;;;;;;4.10;3.03;;;2.50;99.90;;;;;;4400052;32;20100;-68
2021/12/08 11:15:16;;;;;;;1.45;1.35;;;2.30;99.90;;;;;;4406968;32;20116;-69
2021/12/08 11:17:41;;;;;;;24.70;1.83;;;2.30;99.90;;;;;;4398986;32;20109;-68
2021/12/08 11:20:18;;;;;;;1.33;1.23;;;2.30;99.90;;;;;;4390120;32;20089;-69
2021/12/08 11:22:57;;;;;;;6.47;4.37;;;2.30;99.90;;;;;;4403294;32;20222;-69
2021/12/08 11:25:39;;;;;;;18.42;4.40;;;2.20;99.90;;;;;;4411156;32;20080;-69
2021/12/08 11:28:29;;;;;;;2.00;1.83;;;2.30;99.90;;;;;;4404367;32;20570;-69
2021/12/08 11:31:05;;;;;;;1.10;1.10;;;2.30;99.90;;;;;;4396630;32;20351;-69
2021/12/08 11:33:30;;;;;;;1.45;1.23;;;2.20;99.90;;;;;;4402584;32;20636;-70
2021/12/08 11:36:18;;;;;;;4.20;2.37;;;2.10;99.90;;;;;;4400948;32;20098;-70
2021/12/08 11:38:46;;;;;;;7.40;2.40;;;2.00;99.90;;;;;;4381199;32;20090;-71
2021/12/08 11:41:35;;;;;;;7.62;2.87;;;2.10;99.90;;;;;;4404741;32;20118;-70
2021/12/08 11:44:05;;;;;;;2.78;1.58;;;2.10;99.90;;;;;;4392453;32;20109;-69
2021/12/08 11:46:37;;;;;;;7.50;2.27;;;2.20;99.90;;;;;;4400896;32;20735;-68
2021/12/08 11:49:05;;;;;;;1.77;1.67;;;2.10;99.90;;;;;;4404414;32;20078;-70
2021/12/08 11:51:52;;;;;;;9.32;2.70;;;2.20;99.90;;;;;;4403089;32;20062;-69
2021/12/08 11:54:28;;;;;;;9.35;3.12;;;2.20;99.90;;;;;;4389109;32;20181;-70
2021/12/08 11:57:02;;;;;;;1.27;1.23;;;2.30;99.90;;;;;;4404931;32;20535;-70
2021/12/08 11:59:27;;;;;;;1.98;1.62;;;2.30;99.90;;;;;;4406346;32;20157;-70
2021/12/08 12:01:54;;;;;;;1.45;1.35;;;2.40;99.90;;;;;;4405875;32;20092;-70
2021/12/08 12:04:19;;;;;;;2.10;1.48;;;2.40;99.90;;;;;;4404361;32;20093;-70
2021/12/08 12:06:45;;;;;;;8.65;3.25;;;2.50;99.90;;;;;;4407380;32;20085;-70
2021/12/08 12:09:11;;;;;;;3.75;1.98;;;2.40;99.90;;;;;;4407126;32;20196;-70
2021/12/08 12:11:36;;;;;;;7.35;1.95;;;2.40;99.90;;;;;;4402886;32;20105;-70
2021/12/08 12:14:03;;;;;;;3.45;1.90;;;2.40;99.90;;;;;;4406249;32;21315;-70
2021/12/08 12:16:29;;;;;;;1.60;1.50;;;2.30;99.90;;;;;;4409325;32;20576;-70
2021/12/08 12:19:00;;;;;;;11.68;2.65;;;2.30;99.90;;;;;;4411729;32;20221;-70
2021/12/08 12:21:44;;;;;;;13.95;2.67;;;2.40;99.90;;;;;;4410890;32;20065;-70
2021/12/08 12:24:20;;;;;;;2.22;2.05;;;2.50;99.90;;;;;;4410931;32;20424;-69
2021/12/08 12:27:08;;;;;;;3.33;2.22;;;2.40;99.90;;;;;;4407176;32;20348;-70
2021/12/08 12:29:56;;;;;;;1.40;1.30;;;2.50;99.90;;;;;;4408289;32;20197;-70
2021/12/08 12:32:30;;;;;;;1.45;1.35;;;2.50;99.90;;;;;;4409466;32;20557;-69
2021/12/08 12:35:18;;;;;;;4.62;1.00;;;2.50;99.90;;;;;;4410592;32;20082;-70
2021/12/08 12:37:45;;;;;;;0.80;0.80;;;2.60;99.90;;;;;;4396431;32;20478;-69
2021/12/08 12:40:15;;;;;;;1.48;1.37;;;2.60;99.90;;;;;;4409871;32;20113;-70
2021/12/08 12:42:45;;;;;;;7.03;2.92;;;2.60;99.90;;;;;;4404868;32;20583;-70
2021/12/08 12:45:14;;;;;;;2.00;1.50;;;2.60;99.90;;;;;;4407109;32;20123;-70
2021/12/08 12:47:39;;;;;;;4.32;2.65;;;2.60;99.90;;;;;;4402145;32;20085;-70
2021/12/08 12:50:23;;;;;;;2.10;1.70;;;2.60;99.90;;;;;;4409971;32;20080;-69
2021/12/08 12:52:51;;;;;;;3.22;2.47;;;2.50;99.90;;;;;;4406010;32;20081;-70
2021/12/08 12:55:31;;;;;;;0.93;0.93;;;2.50;99.90;;;;;;4406364;32;20073;-69
2021/12/08 12:58:08;;;;;;;4.28;2.35;;;2.50;99.90;;;;;;4409750;32;20192;-70
2021/12/08 13:00:39;;;;;;;2.70;1.83;;;2.50;99.90;;;;;;4411787;32;20177;-72
2021/12/08 13:03:06;;;;;;;1.50;1.42;;;2.50;99.90;;;;;;4409126;32;21158;-72
2021/12/08 13:05:53;;;;;;;2.75;2.35;;;2.40;99.90;;;;;;4408159;32;20085;-72
2021/12/08 13:08:40;;;;;;;2.42;2.12;;;2.50;99.90;;;;;;4409117;32;20175;-71
2021/12/08 13:11:35;;;;;;;1.65;1.55;;;2.50;99.90;;;;;;4393362;32;20081;-70
2021/12/08 13:14:03;;;;;;;7.93;2.95;;;2.50;99.90;;;;;;4398103;32;20085;-71
2021/12/08 13:16:33;;;;;;;0.95;0.93;;;2.50;99.90;;;;;;4408158;32;20081;-71
2021/12/08 13:19:01;;;;;;;2.30;1.83;;;2.40;99.90;;;;;;4411440;32;20575;-70
2021/12/08 13:21:48;;;;;;;5.93;2.65;;;2.40;99.90;;;;;;4411967;32;20126;-70
2021/12/08 13:24:36;;;;;;;2.78;2.50;;;2.50;99.90;;;;;;4406839;32;20135;-71
2021/12/08 13:27:06;;;;;;;1.98;1.80;;;2.50;99.90;;;;;;4396115;32;20066;-70
2021/12/08 13:29:35;;;;;;;5.95;2.92;;;2.50;99.90;;;;;;4409000;32;21228;-72
2021/12/08 13:32:25;;;;;;;3.78;2.45;;;2.40;99.90;;;;;;4409328;32;20109;-71
2021/12/08 13:34:57;;;;;;;2.65;1.80;;;2.50;99.90;;;;;;4398514;32;20080;-71
2021/12/08 13:37:25;;;;;;;1.10;1.10;;;2.60;99.90;;;;;;4411223;32;20073;-70
2021/12/08 13:39:53;;;;;;;4.65;2.50;;;2.50;99.90;;;;;;4412106;32;20097;-70
2021/12/08 13:42:30;;;;;;;5.70;3.37;;;2.40;99.90;;;;;;4410526;32;20215;-69
2021/12/08 13:45:03;;;;;;;3.40;1.58;;;2.30;99.90;;;;;;4411475;32;20097;-69
2021/12/08 13:47:39;;;;;;;7.65;3.42;;;2.40;99.90;;;;;;4409634;32;20069;-69
2021/12/08 13:50:25;;;;;;;1.70;1.60;;;2.40;99.90;;;;;;4408354;32;20089;-70
2021/12/08 13:53:15;;;;;;;3.10;1.10;;;2.40;99.90;;;;;;4411946;32;20097;-69
2021/12/08 13:55:44;;;;;;;1.95;1.80;;;2.30;99.90;;;;;;4401306;32;20774;-70
2021/12/08 13:58:15;;;;;;;4.18;2.78;;;2.30;99.90;;;;;;4414861;32;20086;-71
2021/12/08 14:00:44;;;;;;;3.90;1.95;;;2.30;99.90;;;;;;4410349;32;20902;-70
2021/12/08 14:03:13;;;;;;;2.20;1.92;;;2.40;99.90;;;;;;4410196;32;20073;-70
2021/12/08 14:05:51;;;;;;;2.05;1.75;;;2.40;99.90;;;;;;4410153;32;20132;-72
2021/12/08 14:08:35;;;;;;;1.42;1.30;;;2.30;99.90;;;;;;4413693;32;20679;-72